createdAt,value
2023-02-27T06:50:01.997Z,4.17
2023-02-27T06:55:07.334Z,5.10
2023-02-27T07:00:12.907Z,10.27
2023-02-27T07:05:16.556Z,4.27
2023-02-27T07:10:19.924Z,3.37
2023-02-27T07:15:23.721Z,3.77
2023-02-27T07:20:26.887Z,4.17
2023-02-27T07:25:30.264Z,3.10
2023-02-27T07:30:33.684Z,2.83
2023-02-27T07:35:42.115Z,2.70
2023-02-27T07:40:46.873Z,3.10
2023-02-27T07:45:51.369Z,2.90
2023-02-27T07:50:54.562Z,3.23
2023-02-27T07:55:57.716Z,2.53
2023-02-27T08:01:00.863Z,3.03
2023-02-27T08:06:04.055Z,3.10
2023-02-27T08:11:07.203Z,3.60
2023-02-27T08:16:10.601Z,2.83
2023-02-27T08:21:17.406Z,3.63
2023-02-27T08:26:21.657Z,3.23
2023-02-27T08:31:25.205Z,4.73
2023-02-27T08:36:28.566Z,3.80
2023-02-27T08:41:31.988Z,3.50
2023-02-27T08:46:35.215Z,3.60
2023-02-27T08:51:38.571Z,3.27
2023-02-27T08:56:41.700Z,2.90
2023-02-27T09:01:45.717Z,2.77
2023-02-27T09:12:13.306Z,3.50
2023-02-27T09:17:17.981Z,3.10
2023-02-27T09:22:42.116Z,2.90
2023-02-27T09:27:49.686Z,3.00
2023-02-27T09:34:02.737Z,2.20
2023-02-27T09:40:02.851Z,3.33
2023-02-27T09:51:44.930Z,3.17
2023-02-27T09:57:04.141Z,3.10
2023-02-27T10:02:34.092Z,4.10
2023-02-27T11:27:31.203Z,0.70
2023-02-27T11:38:58.154Z,0.77
2023-02-27T11:44:38.331Z,0.93
2023-02-27T11:50:07.283Z,0.90
2023-02-27T11:55:18.175Z,1.07
2023-02-27T12:07:41.134Z,1.30
2023-02-27T12:12:58.564Z,0.90
2023-02-27T12:18:23.415Z,1.60
2023-02-27T12:23:26.449Z,0.97
2023-02-27T12:28:33.543Z,1.20
2023-02-27T12:33:47.339Z,1.43
2023-02-27T12:38:50.537Z,1.40
2023-02-27T12:44:12.108Z,1.70
2023-02-27T12:49:54.696Z,1.43
2023-02-27T12:55:13.204Z,0.83
2023-02-27T13:00:48.348Z,0.73
2023-02-27T13:06:10.394Z,1.20
2023-02-27T13:11:41.379Z,0.93
2023-02-27T13:16:51.180Z,1.30
2023-02-27T13:22:07.556Z,1.27
2023-02-27T13:27:25.465Z,0.90
2023-02-27T13:32:52.536Z,0.93
2023-02-27T13:38:02.756Z,0.97
2023-02-27T13:43:51.350Z,1.33
2023-02-27T13:48:56.222Z,0.90
2023-02-27T13:54:14.603Z,1.80
2023-02-27T14:13:28.292Z,1.30
2023-02-27T14:18:57.103Z,1.63
2023-02-27T14:24:00.340Z,2.00
2023-02-27T14:29:03.829Z,1.27
2023-02-27T14:34:20.561Z,1.23
2023-02-27T14:39:34.432Z,0.93
2023-02-27T14:44:44.090Z,1.67
2023-02-27T14:49:48.891Z,3.10
2023-02-27T14:54:52.807Z,2.50
2023-02-27T14:59:56.148Z,1.77
2023-02-27T15:05:02.497Z,1.70
2023-02-27T15:10:08.518Z,7.40
2023-02-27T15:15:19.853Z,1.10
2023-02-27T15:20:30.840Z,1.90
2023-02-27T15:25:37.996Z,0.93
2023-02-27T15:30:44.335Z,1.13
2023-02-27T15:35:47.789Z,0.90
2023-02-27T15:40:50.974Z,1.43
2023-02-27T15:45:55.283Z,1.77
2023-02-27T15:51:02.425Z,1.37
2023-02-27T15:56:09.871Z,1.70
2023-02-27T16:01:21.133Z,1.50
2023-02-27T16:06:35.349Z,2.03
2023-02-27T16:11:39.848Z,2.83
2023-02-27T16:16:55.269Z,5.37
2023-02-27T16:22:15.918Z,4.30
2023-02-27T16:27:28.664Z,3.23
2023-02-27T16:32:39.270Z,2.63
2023-02-27T16:37:45.297Z,4.33
2023-02-27T16:42:49.338Z,4.10
2023-02-27T16:47:55.687Z,2.37
2023-02-27T16:52:59.118Z,2.83
2023-02-27T16:58:04.256Z,5.07
2023-02-27T17:03:09.592Z,2.77
2023-02-27T17:08:13.659Z,4.53
2023-02-27T17:13:18.260Z,4.87
2023-02-27T17:18:23.222Z,4.30
2023-02-27T17:23:27.387Z,4.23
2023-02-27T17:28:30.881Z,5.20
2023-02-27T17:33:35.033Z,5.30
2023-02-27T17:38:39.981Z,5.53
2023-02-27T17:43:44.772Z,4.97
2023-02-27T17:48:50.635Z,4.03
2023-02-27T17:54:00.451Z,4.67
2023-02-27T17:59:05.840Z,3.40
2023-02-27T18:04:12.139Z,4.43
2023-02-27T18:09:16.405Z,4.33
2023-02-27T18:14:20.899Z,4.97
2023-02-27T18:19:26.668Z,7.37
2023-02-27T18:24:31.943Z,5.53
2023-02-27T18:29:37.548Z,4.07
2023-02-27T18:34:44.450Z,4.40
2023-02-27T18:39:49.113Z,4.80
2023-02-27T18:44:55.912Z,5.23
2023-02-27T18:50:00.485Z,5.20
2023-02-27T18:55:08.049Z,6.97
2023-02-27T19:00:24.620Z,6.00
2023-02-27T19:05:29.521Z,5.87
2023-02-27T19:10:35.826Z,6.30
2023-02-27T19:15:42.196Z,8.50
2023-02-27T19:20:50.016Z,10.33
